sensor_id;sensor_type;location;lat;lon;timestamp;pressure;altitude;pressure_sealevel;temperature;humidity
53506;BME280;39388;50.936;6.848;2023-02-23T00:02:00;100652.88;;;11.16;88.67
53506;BME280;39388;50.936;6.848;2023-02-23T00:04:35;100649.47;;;11.12;88.65
53506;BME280;39388;50.936;6.848;2023-02-23T00:07:05;100646.03;;;11.12;88.85
53506;BME280;39388;50.936;6.848;2023-02-23T00:09:36;100642.59;;;11.11;88.51
53506;BME280;39388;50.936;6.848;2023-02-23T00:12:06;100649.47;;;11.09;88.35
53506;BME280;39388;50.936;6.848;2023-02-23T00:14:37;100642.59;;;11.08;88.47
53506;BME280;39388;50.936;6.848;2023-02-23T00:17:07;100634.91;;;11.05;88.53
53506;BME280;39388;50.936;6.848;2023-02-23T00:19:46;100632.31;;;11.03;88.60
53506;BME280;39388;50.936;6.848;2023-02-23T00:22:16;100639.19;;;11.05;88.52
53506;BME280;39388;50.936;6.848;2023-02-23T00:24:47;100633.16;;;11.06;88.67
53506;BME280;39388;50.936;6.848;2023-02-23T00:27:19;100642.59;;;11.08;88.67
53506;BME280;39388;50.936;6.848;2023-02-23T00:29:50;100643.47;;;11.07;88.84
53506;BME280;39388;50.936;6.848;2023-02-23T00:32:21;100645.19;;;11.10;88.99
53506;BME280;39388;50.936;6.848;2023-02-23T00:34:51;100634.94;;;11.02;88.83
53506;BME280;39388;50.936;6.848;2023-02-23T00:37:22;100635.78;;;11.04;89.15
53506;BME280;39388;50.936;6.848;2023-02-23T00:39:54;100634.94;;;11.02;89.30
53506;BME280;39388;50.936;6.848;2023-02-23T00:42:25;100625.44;;;11.02;89.38
53506;BME280;39388;50.936;6.848;2023-02-23T00:45:01;100625.44;;;11.06;89.30
53506;BME280;39388;50.936;6.848;2023-02-23T00:47:42;100637.47;;;11.07;89.16
53506;BME280;39388;50.936;6.848;2023-02-23T00:50:15;100630.63;;;11.04;89.47
53506;BME280;39388;50.936;6.848;2023-02-23T00:52:45;100634.06;;;11.01;89.47
53506;BME280;39388;50.936;6.848;2023-02-23T00:55:16;100633.22;;;10.99;89.87
53506;BME280;39388;50.936;6.848;2023-02-23T00:57:46;100622.09;;;10.93;89.37
53506;BME280;39388;50.936;6.848;2023-02-23T01:00:17;100622.94;;;10.96;89.83
53506;BME280;39388;50.936;6.848;2023-02-23T01:02:50;100627.22;;;10.96;89.59
53506;BME280;39388;50.936;6.848;2023-02-23T01:05:20;100630.69;;;10.93;89.68
53506;BME280;39388;50.936;6.848;2023-02-23T01:07:51;100628.09;;;10.92;89.92
53506;BME280;39388;50.936;6.848;2023-02-23T01:10:21;100628.13;;;10.93;89.97
53506;BME280;39388;50.936;6.848;2023-02-23T01:12:52;100634.97;;;10.96;89.69
53506;BME280;39388;50.936;6.848;2023-02-23T01:15:23;100620.41;;;10.88;89.86
53506;BME280;39388;50.936;6.848;2023-02-23T01:17:54;100626.41;;;10.89;89.87
53506;BME280;39388;50.936;6.848;2023-02-23T01:20:24;100626.44;;;10.87;89.40
53506;BME280;39388;50.936;6.848;2023-02-23T01:22:54;100626.47;;;10.83;89.67
53506;BME280;39388;50.936;6.848;2023-02-23T01:25:24;100607.66;;;10.70;90.00
53506;BME280;39388;50.936;6.848;2023-02-23T01:27:57;100630.75;;;10.85;90.38
53506;BME280;39388;50.936;6.848;2023-02-23T01:30:27;100624.78;;;10.82;89.75
53506;BME280;39388;50.936;6.848;2023-02-23T01:32:58;100626.47;;;10.83;89.87
53506;BME280;39388;50.936;6.848;2023-02-23T01:35:30;100627.31;;;10.85;89.94
53506;BME280;39388;50.936;6.848;2023-02-23T01:38:02;100629.06;;;10.83;90.24
53506;BME280;39388;50.936;6.848;2023-02-23T01:40:33;100632.50;;;10.80;90.25
53506;BME280;39388;50.936;6.848;2023-02-23T01:45:44;100635.91;;;10.85;90.26
53506;BME280;39388;50.936;6.848;2023-02-23T01:48:26;100635.03;;;10.86;90.43
53506;BME280;39388;50.936;6.848;2023-02-23T01:51:07;100633.31;;;10.88;90.46
53506;BME280;39388;50.936;6.848;2023-02-23T01:53:43;100626.47;;;10.83;89.96
53506;BME280;39388;50.936;6.848;2023-02-23T01:56:21;100631.63;;;10.83;90.14
53506;BME280;39388;50.936;6.848;2023-02-23T01:58:54;100616.16;;;10.78;90.03
53506;BME280;39388;50.936;6.848;2023-02-23T02:01:26;100626.47;;;10.81;90.21
53506;BME280;39388;50.936;6.848;2023-02-23T02:04:02;100623.03;;;10.82;90.26
53506;BME280;39388;50.936;6.848;2023-02-23T02:06:36;100623.03;;;10.84;90.53
53506;BME280;39388;50.936;6.848;2023-02-23T02:09:10;100627.31;;;10.83;90.76
53506;BME280;39388;50.936;6.848;2023-02-23T02:11:46;100627.34;;;10.82;90.67
53506;BME280;39388;50.936;6.848;2023-02-23T02:14:26;100622.19;;;10.80;91.20
53506;BME280;39388;50.936;6.848;2023-02-23T02:22:53;100622.19;;;10.79;90.96
53506;BME280;39388;50.936;6.848;2023-02-23T02:25:36;100615.34;;;10.78;91.26
53506;BME280;39388;50.936;6.848;2023-02-23T02:34:05;100614.47;;;10.77;90.54
53506;BME280;39388;50.936;6.848;2023-02-23T02:39:58;100590.53;;;10.63;91.10
53506;BME280;39388;50.936;6.848;2023-02-23T02:45:39;100610.16;;;10.78;90.89
53506;BME280;39388;50.936;6.848;2023-02-23T02:48:35;100605.91;;;10.73;91.16
53506;BME280;39388;50.936;6.848;2023-02-23T02:56:42;100592.22;;;10.64;90.88
53506;BME280;39388;50.936;6.848;2023-02-23T02:59:16;100616.22;;;10.73;90.72
53506;BME280;39388;50.936;6.848;2023-02-23T03:02:05;100601.66;;;10.69;90.86
53506;BME280;39388;50.936;6.848;2023-02-23T03:04:54;100602.53;;;10.65;90.79
53506;BME280;39388;50.936;6.848;2023-02-23T03:07:55;100612.78;;;10.71;91.02
53506;BME280;39388;50.936;6.848;2023-02-23T03:11:06;100608.50;;;10.69;90.97
53506;BME280;39388;50.936;6.848;2023-02-23T03:14:05;100612.84;;;10.68;91.08
53506;BME280;39388;50.936;6.848;2023-02-23T03:20:19;100600.84;;;10.63;91.39
53506;BME280;39388;50.936;6.848;2023-02-23T03:29:01;100611.97;;;10.66;91.37
53506;BME280;39388;50.936;6.848;2023-02-23T03:32:03;100612.84;;;10.64;91.11
53506;BME280;39388;50.936;6.848;2023-02-23T03:35:05;100618.88;;;10.61;91.47
53506;BME280;39388;50.936;6.848;2023-02-23T03:38:08;100616.31;;;10.58;91.19
53506;BME280;39388;50.936;6.848;2023-02-23T03:41:00;100620.63;;;10.57;91.51
53506;BME280;39388;50.936;6.848;2023-02-23T03:43:57;100614.63;;;10.55;91.15
53506;BME280;39388;50.936;6.848;2023-02-23T03:46:49;100622.34;;;10.55;91.35
53506;BME280;39388;50.936;6.848;2023-02-23T03:49:39;100624.97;;;10.54;91.78
53506;BME280;39388;50.936;6.848;2023-02-23T03:52:33;100629.22;;;10.56;92.00
53506;BME280;39388;50.936;6.848;2023-02-23T03:55:31;100624.94;;;10.55;91.65
53506;BME280;39388;50.936;6.848;2023-02-23T03:58:26;100617.22;;;10.51;91.93
53506;BME280;39388;50.936;6.848;2023-02-23T04:01:20;100624.97;;;10.54;92.10
53506;BME280;39388;50.936;6.848;2023-02-23T04:04:10;100627.50;;;10.55;92.12
53506;BME280;39388;50.936;6.848;2023-02-23T04:07:01;100622.38;;;10.51;91.95
53506;BME280;39388;50.936;6.848;2023-02-23T04:09:51;100631.81;;;10.55;91.98
53506;BME280;39388;50.936;6.848;2023-02-23T04:13:10;100633.56;;;10.53;92.07
53506;BME280;39388;50.936;6.848;2023-02-23T04:15:52;100631.81;;;10.50;92.09
53506;BME280;39388;50.936;6.848;2023-02-23T04:18:32;100636.97;;;10.53;92.36
53506;BME280;39388;50.936;6.848;2023-02-23T04:21:04;100630.09;;;10.52;92.24
53506;BME280;39388;50.936;6.848;2023-02-23T04:23:36;100626.69;;;10.49;92.11
53506;BME280;39388;50.936;6.848;2023-02-23T04:26:09;100633.56;;;10.50;92.40
53506;BME280;39388;50.936;6.848;2023-02-23T04:28:40;100634.44;;;10.49;92.48
53506;BME280;39388;50.936;6.848;2023-02-23T04:31:10;100643.03;;;10.48;92.52
53506;BME280;39388;50.936;6.848;2023-02-23T04:33:40;100639.63;;;10.44;92.54
53506;BME280;39388;50.936;6.848;2023-02-23T04:36:11;100635.34;;;10.38;92.64
53506;BME280;39388;50.936;6.848;2023-02-23T04:38:41;100637.91;;;10.43;92.48
53506;BME280;39388;50.936;6.848;2023-02-23T04:41:11;100645.63;;;10.43;92.71
53506;BME280;39388;50.936;6.848;2023-02-23T04:43:42;100638.78;;;10.40;92.59
53506;BME280;39388;50.936;6.848;2023-02-23T04:46:12;100642.22;;;10.39;92.37
53506;BME280;39388;50.936;6.848;2023-02-23T04:48:43;100643.06;;;10.37;92.42
53506;BME280;39388;50.936;6.848;2023-02-23T04:51:13;100640.53;;;10.34;92.32
53506;BME280;39388;50.936;6.848;2023-02-23T04:53:44;100634.53;;;10.29;92.70
53506;BME280;39388;50.936;6.848;2023-02-23T04:56:15;100635.41;;;10.24;92.79
53506;BME280;39388;50.936;6.848;2023-02-23T04:58:45;100650.88;;;10.27;92.86
53506;BME280;39388;50.936;6.848;2023-02-23T05:01:16;100647.44;;;10.25;92.73
53506;BME280;39388;50.936;6.848;2023-02-23T05:03:50;100652.56;;;10.27;93.02
53506;BME280;39388;50.936;6.848;2023-02-23T05:06:20;100644.00;;;10.23;93.62
53506;BME280;39388;50.936;6.848;2023-02-23T05:08:51;100648.28;;;10.24;93.01
53506;BME280;39388;50.936;6.848;2023-02-23T05:11:21;100649.16;;;10.26;93.36
53506;BME280;39388;50.936;6.848;2023-02-23T05:13:52;100644.88;;;10.22;93.34
53506;BME280;39388;50.936;6.848;2023-02-23T05:16:23;100657.72;;;10.30;93.58
53506;BME280;39388;50.936;6.848;2023-02-23T05:18:54;100647.47;;;10.21;93.50
53506;BME280;39388;50.936;6.848;2023-02-23T05:21:24;100662.03;;;10.30;93.44
53506;BME280;39388;50.936;6.848;2023-02-23T05:23:55;100663.75;;;10.31;93.08
53506;BME280;39388;50.936;6.848;2023-02-23T05:26:26;100661.19;;;10.26;93.28
53506;BME280;39388;50.936;6.848;2023-02-23T05:28:56;100662.91;;;10.25;93.31
53506;BME280;39388;50.936;6.848;2023-02-23T05:31:27;100659.47;;;10.25;93.58
53506;BME280;39388;50.936;6.848;2023-02-23T05:33:58;100655.16;;;10.22;93.22
53506;BME280;39388;50.936;6.848;2023-02-23T05:36:28;100659.44;;;10.30;93.47
53506;BME280;39388;50.936;6.848;2023-02-23T05:38:58;100670.63;;;10.32;93.27
53506;BME280;39388;50.936;6.848;2023-02-23T05:41:29;100668.91;;;10.31;93.41
53506;BME280;39388;50.936;6.848;2023-02-23T05:44:00;100657.72;;;10.27;93.29
53506;BME280;39388;50.936;6.848;2023-02-23T05:46:30;100669.72;;;10.34;93.26
53506;BME280;39388;50.936;6.848;2023-02-23T05:49:01;100663.75;;;10.31;93.39
53506;BME280;39388;50.936;6.848;2023-02-23T05:51:33;100668.88;;;10.32;93.34
53506;BME280;39388;50.936;6.848;2023-02-23T05:54:04;100662.03;;;10.30;93.30
53506;BME280;39388;50.936;6.848;2023-02-23T05:56:34;100657.75;;;10.25;93.30
53506;BME280;39388;50.936;6.848;2023-02-23T05:59:05;100674.88;;;10.31;93.65
53506;BME280;39388;50.936;6.848;2023-02-23T06:01:35;100664.59;;;10.28;93.88
53506;BME280;39388;50.936;6.848;2023-02-23T06:04:06;100677.50;;;10.30;93.79
53506;BME280;39388;50.936;6.848;2023-02-23T06:06:36;100659.47;;;10.22;93.75
53506;BME280;39388;50.936;6.848;2023-02-23T06:09:07;100669.78;;;10.25;93.60
53506;BME280;39388;50.936;6.848;2023-02-23T06:11:37;100663.78;;;10.23;93.79
53506;BME280;39388;50.936;6.848;2023-02-23T06:14:07;100668.91;;;10.26;93.83
53506;BME280;39388;50.936;6.848;2023-02-23T06:16:38;100675.78;;;10.29;93.99
53506;BME280;39388;50.936;6.848;2023-02-23T06:19:08;100678.34;;;10.27;93.91
53506;BME280;39388;50.936;6.848;2023-02-23T06:21:38;100674.94;;;10.22;94.25
53506;BME280;39388;50.936;6.848;2023-02-23T06:24:10;100680.06;;;10.26;94.02
53506;BME280;39388;50.936;6.848;2023-02-23T06:26:41;100680.09;;;10.22;94.04
53506;BME280;39388;50.936;6.848;2023-02-23T06:29:11;100678.41;;;10.19;93.89
53506;BME280;39388;50.936;6.848;2023-02-23T06:31:42;100678.38;;;10.18;93.75
53506;BME280;39388;50.936;6.848;2023-02-23T06:34:13;100685.25;;;10.25;94.15
53506;BME280;39388;50.936;6.848;2023-02-23T06:36:43;100686.97;;;10.23;93.86
53506;BME280;39388;50.936;6.848;2023-02-23T06:39:14;100686.09;;;10.22;94.09
53506;BME280;39388;50.936;6.848;2023-02-23T06:41:44;100694.69;;;10.23;93.89
53506;BME280;39388;50.936;6.848;2023-02-23T06:44:14;100695.56;;;10.22;94.03
53506;BME280;39388;50.936;6.848;2023-02-23T06:46:45;100700.69;;;10.26;93.93
53506;BME280;39388;50.936;6.848;2023-02-23T06:49:15;100707.56;;;10.24;94.16
53506;BME280;39388;50.936;6.848;2023-02-23T06:51:45;100712.72;;;10.27;94.24
53506;BME280;39388;50.936;6.848;2023-02-23T06:54:16;100724.75;;;10.25;93.97
53506;BME280;39388;50.936;6.848;2023-02-23T06:56:46;100708.44;;;10.20;93.82
53506;BME280;39388;50.936;6.848;2023-02-23T06:59:17;100729.03;;;10.26;93.91
53506;BME280;39388;50.936;6.848;2023-02-23T07:01:48;100725.59;;;10.24;94.00
53506;BME280;39388;50.936;6.848;2023-02-23T07:04:18;100729.88;;;10.27;94.18
53506;BME280;39388;50.936;6.848;2023-02-23T07:06:48;100726.47;;;10.26;93.89
53506;BME280;39388;50.936;6.848;2023-02-23T07:09:19;100737.59;;;10.30;93.87
53506;BME280;39388;50.936;6.848;2023-02-23T07:11:49;100744.50;;;10.33;93.90
53506;BME280;39388;50.936;6.848;2023-02-23T07:14:20;100730.75;;;10.31;93.82
53506;BME280;39388;50.936;6.848;2023-02-23T07:16:51;100735.03;;;10.32;93.66
53506;BME280;39388;50.936;6.848;2023-02-23T07:19:21;100741.91;;;10.33;94.00
53506;BME280;39388;50.936;6.848;2023-02-23T07:21:52;100752.19;;;10.34;93.60
53506;BME280;39388;50.936;6.848;2023-02-23T07:24:22;100747.94;;;10.32;93.74
53506;BME280;39388;50.936;6.848;2023-02-23T07:26:53;100742.75;;;10.30;94.05
53506;BME280;39388;50.936;6.848;2023-02-23T07:29:23;100753.91;;;10.38;93.78
53506;BME280;39388;50.936;6.848;2023-02-23T07:31:54;100755.63;;;10.39;93.56
53506;BME280;39388;50.936;6.848;2023-02-23T07:34:24;100753.91;;;10.37;93.78
53506;BME280;39388;50.936;6.848;2023-02-23T07:36:55;100754.75;;;10.36;93.58
53506;BME280;39388;50.936;6.848;2023-02-23T07:39:25;100756.47;;;10.43;93.69
53506;BME280;39388;50.936;6.848;2023-02-23T07:41:56;100761.63;;;10.41;93.33
53506;BME280;39388;50.936;6.848;2023-02-23T07:44:27;100747.03;;;10.36;93.61
53506;BME280;39388;50.936;6.848;2023-02-23T07:46:57;100762.50;;;10.45;93.54
53506;BME280;39388;50.936;6.848;2023-02-23T07:49:27;100764.19;;;10.45;93.52
53506;BME280;39388;50.936;6.848;2023-02-23T07:51:59;100761.63;;;10.41;93.49
53506;BME280;39388;50.936;6.848;2023-02-23T07:54:29;100767.66;;;10.45;93.26
53506;BME280;39388;50.936;6.848;2023-02-23T07:57:00;100766.78;;;10.46;92.83
53506;BME280;39388;50.936;6.848;2023-02-23T07:59:30;100765.91;;;10.42;92.72
53506;BME280;39388;50.936;6.848;2023-02-23T08:02:01;100769.38;;;10.40;92.60
53506;BME280;39388;50.936;6.848;2023-02-23T08:04:32;100770.22;;;10.39;92.81
53506;BME280;39388;50.936;6.848;2023-02-23T08:07:02;100769.38;;;10.35;92.57
53506;BME280;39388;50.936;6.848;2023-02-23T08:09:32;100772.84;;;10.33;92.53
53506;BME280;39388;50.936;6.848;2023-02-23T08:12:04;100784.84;;;10.40;92.75
53506;BME280;39388;50.936;6.848;2023-02-23T08:14:35;100784.00;;;10.36;92.29
53506;BME280;39388;50.936;6.848;2023-02-23T08:17:05;100782.28;;;10.32;92.64
53506;BME280;39388;50.936;6.848;2023-02-23T08:19:35;100784.88;;;10.34;92.46
53506;BME280;39388;50.936;6.848;2023-02-23T08:22:06;100790.88;;;10.37;92.62
53506;BME280;39388;50.936;6.848;2023-02-23T08:24:37;100788.28;;;10.39;92.63
53506;BME280;39388;50.936;6.848;2023-02-23T08:27:07;100796.00;;;10.42;92.34
53506;BME280;39388;50.936;6.848;2023-02-23T08:29:38;100800.28;;;10.43;92.83
53506;BME280;39388;50.936;6.848;2023-02-23T08:32:09;100800.28;;;10.45;92.53
53506;BME280;39388;50.936;6.848;2023-02-23T08:34:41;100790.81;;;10.44;92.31
53506;BME280;39388;50.936;6.848;2023-02-23T08:37:11;100802.00;;;10.47;92.71
53506;BME280;39388;50.936;6.848;2023-02-23T08:39:42;100796.84;;;10.47;92.70
53506;BME280;39388;50.936;6.848;2023-02-23T08:42:13;100797.69;;;10.41;92.29
53506;BME280;39388;50.936;6.848;2023-02-23T08:44:43;100801.16;;;10.45;92.18
53506;BME280;39388;50.936;6.848;2023-02-23T08:47:14;100804.56;;;10.46;92.08
53506;BME280;39388;50.936;6.848;2023-02-23T08:49:45;100812.31;;;10.47;92.48
53506;BME280;39388;50.936;6.848;2023-02-23T08:52:16;100810.59;;;10.45;92.36
53506;BME280;39388;50.936;6.848;2023-02-23T08:54:46;100812.31;;;10.46;92.66
53506;BME280;39388;50.936;6.848;2023-02-23T08:57:17;100817.47;;;10.47;92.41
53506;BME280;39388;50.936;6.848;2023-02-23T08:59:48;100815.75;;;10.46;91.93
53506;BME280;39388;50.936;6.848;2023-02-23T09:02:18;100814.91;;;10.39;92.24
53506;BME280;39388;50.936;6.848;2023-02-23T09:04:50;100813.19;;;10.40;92.48
53506;BME280;39388;50.936;6.848;2023-02-23T09:07:23;100824.38;;;10.40;92.63
53506;BME280;39388;50.936;6.848;2023-02-23T09:09:54;100817.47;;;10.38;92.84
53506;BME280;39388;50.936;6.848;2023-02-23T09:12:25;100827.78;;;10.42;92.25
53506;BME280;39388;50.936;6.848;2023-02-23T09:14:55;100826.91;;;10.44;92.61
53506;BME280;39388;50.936;6.848;2023-02-23T09:17:26;100824.34;;;10.42;92.50
53506;BME280;39388;50.936;6.848;2023-02-23T09:19:56;100825.22;;;10.44;92.25
53506;BME280;39388;50.936;6.848;2023-02-23T09:22:27;100819.22;;;10.37;92.49
53506;BME280;39388;50.936;6.848;2023-02-23T09:24:57;100832.94;;;10.44;92.58
53506;BME280;39388;50.936;6.848;2023-02-23T09:27:28;100830.38;;;10.44;92.33
53506;BME280;39388;50.936;6.848;2023-02-23T09:29:58;100838.94;;;10.49;92.82
53506;BME280;39388;50.936;6.848;2023-02-23T09:32:28;100832.06;;;10.53;92.59
53506;BME280;39388;50.936;6.848;2023-02-23T09:34:59;100839.81;;;10.53;92.22
53506;BME280;39388;50.936;6.848;2023-02-23T09:37:29;100838.94;;;10.54;92.33
53506;BME280;39388;50.936;6.848;2023-02-23T09:40:00;100835.50;;;10.53;92.34
53506;BME280;39388;50.936;6.848;2023-02-23T09:42:47;100845.81;;;10.55;92.32
53506;BME280;39388;50.936;6.848;2023-02-23T09:50:34;100851.81;;;10.62;92.39
53506;BME280;39388;50.936;6.848;2023-02-23T09:56:14;100850.97;;;10.60;92.39
53506;BME280;39388;50.936;6.848;2023-02-23T09:58:46;100856.97;;;10.59;92.36
53506;BME280;39388;50.936;6.848;2023-02-23T10:15:22;100875.88;;;10.54;92.50
53506;BME280;39388;50.936;6.848;2023-02-23T10:17:59;100870.75;;;10.53;92.40
53506;BME280;39388;50.936;6.848;2023-02-23T10:23:28;100886.22;;;10.53;92.47
53506;BME280;39388;50.936;6.848;2023-02-23T10:26:01;100882.75;;;10.49;92.25
53506;BME280;39388;50.936;6.848;2023-02-23T10:28:34;100876.75;;;10.49;92.12
53506;BME280;39388;50.936;6.848;2023-02-23T10:31:23;100884.50;;;10.47;92.23
53506;BME280;39388;50.936;6.848;2023-02-23T10:33:57;100863.91;;;10.36;92.12
53506;BME280;39388;50.936;6.848;2023-02-23T10:36:41;100877.63;;;10.46;92.09
53506;BME280;39388;50.936;6.848;2023-02-23T10:39:12;100884.47;;;10.50;92.43
53506;BME280;39388;50.936;6.848;2023-02-23T10:41:43;100887.94;;;10.51;92.81
53506;BME280;39388;50.936;6.848;2023-02-23T10:44:19;100886.22;;;10.50;92.85
53506;BME280;39388;50.936;6.848;2023-02-23T10:46:55;100889.63;;;10.50;92.00
53506;BME280;39388;50.936;6.848;2023-02-23T10:52:11;100900.81;;;10.48;92.16
53506;BME280;39388;50.936;6.848;2023-02-23T10:54:45;100894.81;;;10.39;91.95
53506;BME280;39388;50.936;6.848;2023-02-23T11:02:46;100899.97;;;10.38;91.71
53506;BME280;39388;50.936;6.848;2023-02-23T11:08:31;100905.13;;;10.35;91.85
53506;BME280;39388;50.936;6.848;2023-02-23T11:11:06;100902.56;;;10.36;92.26
53506;BME280;39388;50.936;6.848;2023-02-23T11:13:40;100904.25;;;10.39;91.87
53506;BME280;39388;50.936;6.848;2023-02-23T11:16:27;100899.97;;;10.38;92.00
53506;BME280;39388;50.936;6.848;2023-02-23T11:19:00;100899.97;;;10.38;92.05
53506;BME280;39388;50.936;6.848;2023-02-23T11:21:37;100898.25;;;10.38;92.05
53506;BME280;39388;50.936;6.848;2023-02-23T11:24:26;100900.81;;;10.40;92.32
53506;BME280;39388;50.936;6.848;2023-02-23T11:27:02;100900.81;;;10.41;92.15
53506;BME280;39388;50.936;6.848;2023-02-23T11:29:38;100886.22;;;10.42;92.12
53506;BME280;39388;50.936;6.848;2023-02-23T11:32:19;100896.53;;;10.48;91.95
53506;BME280;39388;50.936;6.848;2023-02-23T11:35:28;100890.53;;;10.46;92.08
53506;BME280;39388;50.936;6.848;2023-02-23T11:38:13;100886.22;;;10.47;92.20
53506;BME280;39388;50.936;6.848;2023-02-23T11:40:58;100886.22;;;10.44;92.13
53506;BME280;39388;50.936;6.848;2023-02-23T11:43:29;100894.81;;;10.46;91.96
53506;BME280;39388;50.936;6.848;2023-02-23T11:46:00;100893.09;;;10.45;91.93
53506;BME280;39388;50.936;6.848;2023-02-23T11:48:49;100891.38;;;10.44;91.69
53506;BME280;39388;50.936;6.848;2023-02-23T11:53:56;100891.41;;;10.40;91.77
53506;BME280;39388;50.936;6.848;2023-02-23T11:56:28;100886.25;;;10.37;91.47
53506;BME280;39388;50.936;6.848;2023-02-23T11:59:05;100883.66;;;10.34;90.90
53506;BME280;39388;50.936;6.848;2023-02-23T12:01:41;100874.22;;;10.25;90.92
53506;BME280;39388;50.936;6.848;2023-02-23T12:04:24;100887.09;;;10.27;90.65
53506;BME280;39388;50.936;6.848;2023-02-23T12:07:28;100883.66;;;10.26;90.61
53506;BME280;39388;50.936;6.848;2023-02-23T12:13:03;100891.38;;;10.20;90.60
53506;BME280;39388;50.936;6.848;2023-02-23T12:15:39;100886.25;;;10.19;90.46
53506;BME280;39388;50.936;6.848;2023-02-23T12:18:21;100885.38;;;10.17;90.12
53506;BME280;39388;50.936;6.848;2023-02-23T12:21:02;100891.38;;;10.16;90.44
53506;BME280;39388;50.936;6.848;2023-02-23T12:23:38;100873.38;;;10.09;90.44
53506;BME280;39388;50.936;6.848;2023-02-23T12:26:14;100884.53;;;10.13;90.53
53506;BME280;39388;50.936;6.848;2023-02-23T12:28:58;100887.09;;;10.13;90.68
53506;BME280;39388;50.936;6.848;2023-02-23T12:31:42;100890.53;;;10.12;90.69
53506;BME280;39388;50.936;6.848;2023-02-23T12:35:17;100882.81;;;10.12;90.71
53506;BME280;39388;50.936;6.848;2023-02-23T12:37:42;100878.53;;;10.05;90.39
53506;BME280;39388;50.936;6.848;2023-02-23T12:40:21;100882.81;;;10.10;90.38
53506;BME280;39388;50.936;6.848;2023-02-23T12:43:04;100882.81;;;10.09;90.66
53506;BME280;39388;50.936;6.848;2023-02-23T12:49:21;100887.97;;;10.12;91.08
53506;BME280;39388;50.936;6.848;2023-02-23T12:52:07;100899.13;;;10.16;90.81
53506;BME280;39388;50.936;6.848;2023-02-23T12:54:43;100894.84;;;10.13;90.86
53506;BME280;39388;50.936;6.848;2023-02-23T12:57:36;100902.56;;;10.15;90.58
53506;BME280;39388;50.936;6.848;2023-02-23T13:14:32;100863.91;;;10.05;91.17
53506;BME280;39388;50.936;6.848;2023-02-23T13:19:40;100881.94;;;10.21;90.50
53506;BME280;39388;50.936;6.848;2023-02-23T13:25:01;100889.66;;;10.22;90.42
53506;BME280;39388;50.936;6.848;2023-02-23T13:30:08;100893.13;;;10.20;90.56
53506;BME280;39388;50.936;6.848;2023-02-23T13:32:39;100887.97;;;10.09;89.78
53506;BME280;39388;50.936;6.848;2023-02-23T13:35:15;100891.41;;;10.05;89.63
53506;BME280;39388;50.936;6.848;2023-02-23T13:40:51;100890.53;;;9.92;89.54
53506;BME280;39388;50.936;6.848;2023-02-23T13:43:27;100897.41;;;9.96;89.76
53506;BME280;39388;50.936;6.848;2023-02-23T13:46:15;100894.84;;;9.98;89.61
53506;BME280;39388;50.936;6.848;2023-02-23T13:49:03;100893.13;;;9.98;89.47
53506;BME280;39388;50.936;6.848;2023-02-23T13:51:46;100864.78;;;9.92;89.41
53506;BME280;39388;50.936;6.848;2023-02-23T13:54:25;100883.66;;;10.08;88.98
53506;BME280;39388;50.936;6.848;2023-02-23T13:57:02;100885.38;;;10.14;88.75
53506;BME280;39388;50.936;6.848;2023-02-23T13:59:41;100880.22;;;10.17;89.06
53506;BME280;39388;50.936;6.848;2023-02-23T14:05:03;100881.94;;;10.27;88.74
53506;BME280;39388;50.936;6.848;2023-02-23T14:07:38;100893.94;;;10.39;88.40
53506;BME280;39388;50.936;6.848;2023-02-23T14:10:37;100893.09;;;10.38;88.49
53506;BME280;39388;50.936;6.848;2023-02-23T14:21:02;100894.81;;;10.41;87.29
53506;BME280;39388;50.936;6.848;2023-02-23T14:26:12;100899.09;;;10.44;87.29
53506;BME280;39388;50.936;6.848;2023-02-23T14:37:16;100895.66;;;10.45;86.85
53506;BME280;39388;50.936;6.848;2023-02-23T14:39:48;100900.84;;;10.46;86.40
53506;BME280;39388;50.936;6.848;2023-02-23T14:42:25;100899.09;;;10.50;86.47
53506;BME280;39388;50.936;6.848;2023-02-23T14:45:02;100894.81;;;10.52;86.24
53506;BME280;39388;50.936;6.848;2023-02-23T14:47:44;100897.38;;;10.52;85.35
53506;BME280;39388;50.936;6.848;2023-02-23T14:50:27;100901.66;;;10.51;85.67
53506;BME280;39388;50.936;6.848;2023-02-23T14:52:59;100898.25;;;10.46;85.18
53506;BME280;39388;50.936;6.848;2023-02-23T14:55:32;100905.97;;;10.51;85.41
53506;BME280;39388;50.936;6.848;2023-02-23T14:58:21;100895.66;;;10.45;85.58
53506;BME280;39388;50.936;6.848;2023-02-23T15:00:52;100910.25;;;10.50;86.18
53506;BME280;39388;50.936;6.848;2023-02-23T15:03:22;100910.28;;;10.46;86.21
53506;BME280;39388;50.936;6.848;2023-02-23T15:05:58;100902.53;;;10.46;86.04
53506;BME280;39388;50.936;6.848;2023-02-23T15:08:29;100906.81;;;10.44;85.46
53506;BME280;39388;50.936;6.848;2023-02-23T15:11:12;100902.56;;;10.33;85.58
53506;BME280;39388;50.936;6.848;2023-02-23T15:13:47;100905.13;;;10.35;85.58
53506;BME280;39388;50.936;6.848;2023-02-23T15:16:33;100906.00;;;10.34;85.63
53506;BME280;39388;50.936;6.848;2023-02-23T15:19:05;100906.00;;;10.35;85.80
53506;BME280;39388;50.936;6.848;2023-02-23T15:21:36;100911.16;;;10.35;84.92
53506;BME280;39388;50.936;6.848;2023-02-23T15:24:11;100911.16;;;10.34;84.98
53506;BME280;39388;50.936;6.848;2023-02-23T15:26:42;100903.41;;;10.27;84.78
53506;BME280;39388;50.936;6.848;2023-02-23T15:29:18;100909.44;;;10.26;84.57
53506;BME280;39388;50.936;6.848;2023-02-23T15:31:52;100922.31;;;10.28;84.46
53506;BME280;39388;50.936;6.848;2023-02-23T15:34:25;100916.31;;;10.24;84.09
53506;BME280;39388;50.936;6.848;2023-02-23T15:36:58;100925.75;;;10.21;84.07
53506;BME280;39388;50.936;6.848;2023-02-23T15:39:37;100919.72;;;10.16;84.40
53506;BME280;39388;50.936;6.848;2023-02-23T15:42:13;100924.91;;;10.17;84.01